Time;durP1;ratioP1;P1;durP2;ratioP2;P2;SDS_P1;SDS_P2;PMS_P1;PMS_P2;Temp;Humidity;BMP_temperature;BMP_pressure;BME280_temperature;BME280_humidity;BME280_pressure;Samples;Min_cycle;Max_cycle;Signal;HPM_P1;HPM_P2
2023/06/05 00:02:13;;;;;;;3.42;2.20;;;12.80;99.90;;;;;;5039159;28;20045;-57
2023/06/05 00:04:40;;;;;;;7.95;2.33;;;12.80;99.90;;;;;;5031280;28;20115;-59
2023/06/05 00:07:07;;;;;;;5.68;2.53;;;12.80;99.90;;;;;;5038716;28;20701;-59
2023/06/05 00:09:34;;;;;;;3.75;1.90;;;12.80;99.90;;;;;;5040164;28;20049;-58
2023/06/05 00:12:01;;;;;;;4.75;1.92;;;12.70;99.90;;;;;;5038662;28;20197;-58
2023/06/05 00:14:28;;;;;;;5.63;2.65;;;12.80;99.90;;;;;;5049808;28;20081;-58
2023/06/05 00:16:57;;;;;;;4.47;2.30;;;12.90;99.90;;;;;;5049478;28;20052;-56
2023/06/05 00:19:24;;;;;;;7.43;2.00;;;12.80;99.90;;;;;;5049692;28;20044;-59
2023/06/05 00:21:52;;;;;;;5.53;2.15;;;12.80;99.90;;;;;;5044669;28;20045;-58
2023/06/05 00:24:20;;;;;;;7.22;2.60;;;12.70;99.90;;;;;;5029102;28;20053;-59
2023/06/05 00:26:47;;;;;;;6.88;2.10;;;12.70;99.90;;;;;;5033987;28;20133;-59
2023/06/05 00:29:14;;;;;;;4.32;2.05;;;12.70;99.90;;;;;;5048429;28;20045;-59
2023/06/05 00:31:43;;;;;;;6.40;3.80;;;12.60;99.90;;;;;;5027423;28;20079;-57
2023/06/05 00:34:10;;;;;;;5.50;2.50;;;12.70;99.90;;;;;;5032098;28;20045;-58
2023/06/05 00:36:37;;;;;;;5.60;2.15;;;12.70;99.90;;;;;;5033091;28;20048;-59
2023/06/05 00:39:04;;;;;;;5.18;2.50;;;12.70;99.90;;;;;;5043543;28;20385;-58
2023/06/05 00:41:31;;;;;;;10.25;2.20;;;12.70;99.90;;;;;;5044679;28;20047;-56
2023/06/05 00:43:58;;;;;;;6.47;2.50;;;12.60;99.90;;;;;;5018729;28;20522;-56
2023/06/05 00:46:25;;;;;;;6.80;3.92;;;12.70;99.90;;;;;;5021803;28;20045;-59
2023/06/05 00:48:52;;;;;;;4.95;2.38;;;12.70;99.90;;;;;;5038952;28;20084;-58
2023/06/05 00:51:18;;;;;;;4.60;2.83;;;12.70;99.90;;;;;;5045865;28;20053;-58
2023/06/05 00:53:45;;;;;;;5.00;2.35;;;12.70;99.90;;;;;;5022547;28;20144;-58
2023/06/05 00:56:12;;;;;;;7.93;3.33;;;12.70;99.90;;;;;;5011929;28;20049;-58
2023/06/05 00:58:39;;;;;;;8.10;2.85;;;12.60;99.90;;;;;;5037571;28;20299;-59
2023/06/05 01:01:06;;;;;;;5.97;2.38;;;12.50;99.90;;;;;;5031122;28;20052;-58
2023/06/05 01:03:34;;;;;;;5.18;2.42;;;12.50;99.90;;;;;;5018541;28;20455;-59
2023/06/05 01:06:04;;;;;;;6.22;2.72;;;12.50;99.90;;;;;;4676436;28;10000414;-60
2023/06/05 01:08:38;;;;;;;7.85;2.53;;;12.40;99.90;;;;;;5034266;28;20049;-59
2023/06/05 01:11:13;;;;;;;4.47;2.10;;;12.40;99.90;;;;;;5048162;28;20538;-58
2023/06/05 01:13:42;;;;;;;7.00;2.63;;;12.50;99.90;;;;;;5024608;28;20504;-58
2023/06/05 01:16:09;;;;;;;6.00;2.85;;;12.40;99.90;;;;;;5043492;28;20061;-60
2023/06/05 01:18:40;;;;;;;6.53;2.78;;;12.50;99.90;;;;;;5046706;28;20049;-59
2023/06/05 01:21:13;;;;;;;4.78;2.63;;;12.40;99.90;;;;;;5011496;28;20282;-59
2023/06/05 01:23:44;;;;;;;7.43;2.20;;;12.40;99.90;;;;;;5037013;28;20119;-59
2023/06/05 01:26:14;;;;;;;10.15;4.45;;;12.40;99.90;;;;;;5011603;28;20099;-59
2023/06/05 01:28:41;;;;;;;6.28;3.58;;;12.40;99.90;;;;;;5016806;28;20053;-59
2023/06/05 01:31:15;;;;;;;6.10;2.45;;;12.40;99.90;;;;;;5019159;28;20614;-59
2023/06/05 01:33:57;;;;;;;5.63;3.42;;;12.40;99.90;;;;;;5025839;28;20075;-59
2023/06/05 01:36:24;;;;;;;9.07;2.85;;;12.30;99.90;;;;;;5050306;28;20049;-58
2023/06/05 01:38:51;;;;;;;6.53;2.65;;;12.30;99.90;;;;;;5038364;28;20053;-58
2023/06/05 01:41:18;;;;;;;7.35;2.15;;;12.30;99.90;;;;;;5033131;28;20041;-59
2023/06/05 01:43:45;;;;;;;2.20;1.80;;;12.30;99.90;;;;;;5032505;28;20503;-60
2023/06/05 01:46:12;;;;;;;5.70;2.28;;;12.40;99.90;;;;;;5023160;28;20404;-59
2023/06/05 01:48:39;;;;;;;8.85;2.15;;;12.30;99.90;;;;;;5038674;28;20135;-57
2023/06/05 01:51:06;;;;;;;4.22;2.30;;;12.30;99.90;;;;;;5043410;28;20424;-58
2023/06/05 01:53:33;;;;;;;7.65;2.28;;;12.30;99.90;;;;;;5050298;28;20049;-59
2023/06/05 01:56:02;;;;;;;9.15;3.28;;;12.30;99.90;;;;;;5044858;28;20488;-58
2023/06/05 01:58:29;;;;;;;6.35;2.13;;;12.30;99.90;;;;;;5049172;28;20075;-59
2023/06/05 02:00:58;;;;;;;4.50;2.13;;;12.30;99.90;;;;;;5045329;28;20424;-59
2023/06/05 02:03:25;;;;;;;5.90;2.38;;;12.20;99.90;;;;;;5034816;28;20056;-59
2023/06/05 02:05:52;;;;;;;3.20;1.90;;;12.20;99.90;;;;;;5043227;28;20041;-59
2023/06/05 02:08:22;;;;;;;6.63;2.38;;;12.20;99.90;;;;;;5053551;28;20080;-60
2023/06/05 02:10:49;;;;;;;8.70;2.40;;;12.20;99.90;;;;;;5046651;28;20052;-59
2023/06/05 02:13:18;;;;;;;3.67;2.10;;;12.20;99.90;;;;;;5044045;28;20041;-59
2023/06/05 02:15:46;;;;;;;7.43;2.40;;;12.20;99.90;;;;;;5042404;28;20065;-59
2023/06/05 02:18:13;;;;;;;7.38;3.10;;;12.30;99.90;;;;;;5036361;28;20049;-59
2023/06/05 02:20:40;;;;;;;6.68;2.78;;;12.20;99.90;;;;;;5031890;28;20083;-60
2023/06/05 02:23:08;;;;;;;4.57;2.55;;;12.20;99.90;;;;;;5034295;28;20100;-59
2023/06/05 02:25:35;;;;;;;7.38;2.53;;;12.20;99.90;;;;;;5044505;28;20052;-59
2023/06/05 02:28:01;;;;;;;4.38;2.35;;;12.30;99.90;;;;;;5036975;28;20148;-59
2023/06/05 02:30:28;;;;;;;5.80;2.47;;;12.20;99.90;;;;;;5038227;28;20045;-60
2023/06/05 02:33:00;;;;;;;5.97;2.08;;;12.20;99.90;;;;;;5049599;28;20049;-58
2023/06/05 02:35:29;;;;;;;6.10;2.38;;;12.20;99.90;;;;;;5032184;28;20045;-60
2023/06/05 02:37:56;;;;;;;6.55;2.63;;;12.10;99.90;;;;;;5039816;28;20080;-61
2023/06/05 02:40:23;;;;;;;10.45;3.10;;;12.20;99.90;;;;;;5020250;28;20057;-59
2023/06/05 02:42:50;;;;;;;5.78;2.63;;;12.20;99.90;;;;;;5046095;28;20126;-57
2023/06/05 02:45:17;;;;;;;6.13;2.70;;;12.20;99.90;;;;;;5049560;28;20720;-59
2023/06/05 02:47:44;;;;;;;5.72;1.95;;;12.20;99.90;;;;;;5041608;28;20080;-59
2023/06/05 02:50:12;;;;;;;6.63;2.70;;;12.20;99.90;;;;;;5033273;28;20038;-59
2023/06/05 02:52:39;;;;;;;3.08;2.22;;;12.10;99.90;;;;;;5039563;28;20064;-59
2023/06/05 02:55:07;;;;;;;7.88;2.08;;;12.10;99.90;;;;;;5050141;28;20052;-57
2023/06/05 02:57:41;;;;;;;6.50;2.42;;;12.20;99.90;;;;;;5042013;28;20045;-59
2023/06/05 03:00:14;;;;;;;6.18;2.33;;;12.10;99.90;;;;;;5029747;28;20107;-58
2023/06/05 03:02:41;;;;;;;7.00;2.27;;;12.10;99.90;;;;;;5044582;28;20060;-59
2023/06/05 03:05:09;;;;;;;9.35;2.83;;;12.10;99.90;;;;;;5031047;28;20069;-60
2023/06/05 03:07:36;;;;;;;9.23;2.50;;;12.10;99.90;;;;;;5037507;28;20484;-60
2023/06/05 03:10:03;;;;;;;8.00;2.72;;;12.10;99.90;;;;;;5051094;28;20511;-59
2023/06/05 03:12:30;;;;;;;6.93;2.60;;;12.10;99.90;;;;;;5034512;28;20081;-59
2023/06/05 03:14:57;;;;;;;6.25;2.55;;;12.10;99.90;;;;;;5030926;28;20092;-59
2023/06/05 03:17:24;;;;;;;7.55;2.95;;;12.10;99.90;;;;;;5034299;28;20049;-60
2023/06/05 03:19:51;;;;;;;4.85;2.75;;;12.10;99.90;;;;;;5048591;28;20495;-63
2023/06/05 03:22:18;;;;;;;5.13;2.10;;;12.10;99.90;;;;;;5045698;28;20060;-57
2023/06/05 03:24:45;;;;;;;9.10;2.28;;;12.20;99.90;;;;;;5033863;28;20046;-60
2023/06/05 03:27:12;;;;;;;8.02;2.55;;;12.30;99.90;;;;;;5034054;28;20099;-58
2023/06/05 03:29:39;;;;;;;4.72;2.05;;;12.30;99.90;;;;;;5033606;28;20503;-58
2023/06/05 03:32:06;;;;;;;6.80;3.00;;;12.30;99.90;;;;;;5034016;28;20052;-57
2023/06/05 03:34:36;;;;;;;7.72;2.35;;;12.30;99.90;;;;;;5024149;28;20049;-58
2023/06/05 03:37:03;;;;;;;6.70;2.70;;;12.40;99.90;;;;;;5028292;28;20045;-58
2023/06/05 03:39:30;;;;;;;6.10;2.50;;;12.40;99.90;;;;;;5039778;28;20068;-58
2023/06/05 03:41:57;;;;;;;6.85;2.83;;;12.40;99.90;;;;;;5015194;28;20056;-59
2023/06/05 03:44:24;;;;;;;4.72;2.15;;;12.30;99.90;;;;;;5038568;28;20492;-58
2023/06/05 03:46:51;;;;;;;7.32;2.88;;;12.30;99.90;;;;;;5049292;28;20120;-59
2023/06/05 03:49:20;;;;;;;6.78;3.17;;;12.30;99.90;;;;;;5023246;28;20188;-58
2023/06/05 03:51:48;;;;;;;4.85;2.22;;;12.30;99.90;;;;;;5012488;28;20061;-58
2023/06/05 03:54:16;;;;;;;7.15;2.63;;;12.30;99.90;;;;;;5036641;28;20077;-58
2023/06/05 03:56:49;;;;;;;4.40;2.35;;;12.30;99.90;;;;;;5049815;28;20055;-59
2023/06/05 03:59:19;;;;;;;8.23;2.85;;;12.40;99.90;;;;;;5042574;28;20045;-58
2023/06/05 04:01:46;;;;;;;9.00;2.03;;;12.30;99.90;;;;;;5020034;28;20053;-58
2023/06/05 04:04:13;;;;;;;5.88;2.58;;;12.30;99.90;;;;;;5042712;28;20241;-58
2023/06/05 04:06:43;;;;;;;5.88;2.13;;;12.30;99.90;;;;;;5048775;28;20091;-57
2023/06/05 04:09:13;;;;;;;7.97;2.80;;;12.30;99.90;;;;;;5044843;28;20052;-58
2023/06/05 04:11:40;;;;;;;3.88;2.67;;;12.30;99.90;;;;;;5030031;28;20079;-57
2023/06/05 04:14:07;;;;;;;7.55;2.33;;;12.30;99.90;;;;;;5033211;28;20038;-59
2023/06/05 04:16:38;;;;;;;6.97;3.13;;;12.30;99.90;;;;;;5046153;28;20527;-58
2023/06/05 04:19:09;;;;;;;8.85;2.75;;;12.30;99.90;;;;;;5044683;28;20073;-59
2023/06/05 04:21:40;;;;;;;4.70;2.95;;;12.20;99.90;;;;;;5032960;28;20069;-59
2023/06/05 04:24:10;;;;;;;3.63;2.33;;;12.20;99.90;;;;;;5033238;28;20115;-59
2023/06/05 04:26:39;;;;;;;6.47;2.55;;;12.20;99.90;;;;;;5043947;28;20071;-58
2023/06/05 04:29:09;;;;;;;8.27;3.38;;;12.20;99.90;;;;;;5026811;28;20045;-58
2023/06/05 04:31:40;;;;;;;8.20;2.50;;;12.20;99.90;;;;;;5036294;28;20053;-58
2023/06/05 04:34:08;;;;;;;8.38;3.05;;;12.30;99.90;;;;;;5032126;28;20045;-58
2023/06/05 04:36:36;;;;;;;6.63;3.00;;;12.30;99.90;;;;;;5040431;28;20523;-57
2023/06/05 04:39:03;;;;;;;7.15;3.13;;;12.40;99.90;;;;;;5044558;28;20053;-58
2023/06/05 04:41:32;;;;;;;7.00;3.60;;;12.40;99.90;;;;;;5039378;28;20053;-58
2023/06/05 04:43:59;;;;;;;4.55;2.95;;;12.30;99.90;;;;;;5031451;28;20038;-58
2023/06/05 04:46:27;;;;;;;6.45;2.80;;;12.30;99.90;;;;;;5036123;28;20052;-58
2023/06/05 04:48:55;;;;;;;8.43;2.75;;;12.30;99.90;;;;;;5046994;28;20060;-58
2023/06/05 04:51:22;;;;;;;7.15;2.45;;;12.40;99.90;;;;;;5036628;28;20475;-58
2023/06/05 04:53:52;;;;;;;6.85;3.08;;;12.40;99.90;;;;;;5041388;28;20056;-58
2023/06/05 04:56:23;;;;;;;7.97;2.95;;;12.30;99.90;;;;;;5035829;28;20047;-59
2023/06/05 04:58:51;;;;;;;7.00;2.28;;;12.40;99.90;;;;;;5048319;28;20061;-58
2023/06/05 05:01:19;;;;;;;5.05;2.90;;;12.40;99.90;;;;;;5024099;28;20060;-58
2023/06/05 05:03:46;;;;;;;6.75;2.53;;;12.40;99.90;;;;;;5011130;28;20049;-58
2023/06/05 05:06:16;;;;;;;7.47;2.85;;;12.40;99.90;;;;;;5041129;28;20082;-59
2023/06/05 05:08:46;;;;;;;7.55;2.45;;;12.50;99.90;;;;;;5028260;28;20512;-58
2023/06/05 05:11:13;;;;;;;5.88;2.83;;;12.50;99.90;;;;;;5031531;28;20084;-58
2023/06/05 05:13:40;;;;;;;6.13;2.50;;;12.50;99.90;;;;;;5046686;28;20448;-59
2023/06/05 05:16:10;;;;;;;9.43;3.95;;;12.50;99.90;;;;;;5043574;28;20508;-58
2023/06/05 05:18:43;;;;;;;4.72;2.38;;;12.50;99.90;;;;;;5030962;28;20052;-58
2023/06/05 05:21:10;;;;;;;7.30;2.83;;;12.60;99.90;;;;;;5031766;28;20063;-58
2023/06/05 05:23:37;;;;;;;10.60;3.28;;;12.60;99.90;;;;;;5042297;28;20045;-60
2023/06/05 05:26:04;;;;;;;6.07;2.95;;;12.70;99.90;;;;;;5039763;28;20050;-60
2023/06/05 05:28:31;;;;;;;4.97;2.40;;;12.70;99.90;;;;;;5028045;28;20045;-60
2023/06/05 05:31:00;;;;;;;6.28;2.92;;;12.80;99.90;;;;;;5031903;28;20037;-61
2023/06/05 05:33:26;;;;;;;9.98;2.92;;;12.90;99.90;;;;;;5038936;28;20070;-60
2023/06/05 05:35:53;;;;;;;6.85;2.95;;;12.90;99.90;;;;;;5033477;28;20044;-60
2023/06/05 05:38:20;;;;;;;8.00;2.58;;;12.90;99.90;;;;;;5035691;28;20055;-59
2023/06/05 05:40:48;;;;;;;6.78;2.63;;;12.80;99.90;;;;;;5045567;28;20104;-60
2023/06/05 05:43:19;;;;;;;7.13;2.72;;;12.80;99.90;;;;;;5039255;28;20056;-60
2023/06/05 05:45:46;;;;;;;7.82;2.85;;;12.80;99.90;;;;;;5047247;28;20043;-59
2023/06/05 05:48:13;;;;;;;4.40;2.63;;;12.80;99.90;;;;;;5041683;28;20040;-60
2023/06/05 05:50:41;;;;;;;12.27;2.72;;;12.90;99.90;;;;;;5039026;28;20045;-59
2023/06/05 05:53:08;;;;;;;6.13;2.22;;;12.90;99.90;;;;;;5039421;28;20046;-59
2023/06/05 05:55:35;;;;;;;10.93;2.78;;;12.90;99.90;;;;;;5028110;28;20056;-60
2023/06/05 05:58:02;;;;;;;5.63;2.58;;;12.90;99.90;;;;;;5034921;28;20071;-59
2023/06/05 06:00:28;;;;;;;6.03;2.38;;;12.90;99.90;;;;;;5029791;28;20044;-60
2023/06/05 06:02:55;;;;;;;5.60;2.78;;;12.90;99.90;;;;;;5029540;28;20053;-61
2023/06/05 06:05:23;;;;;;;21.00;3.17;;;13.00;99.90;;;;;;5011152;28;20060;-60
2023/06/05 06:07:50;;;;;;;6.22;2.65;;;13.00;99.90;;;;;;5030766;28;20476;-59
2023/06/05 06:10:17;;;;;;;9.82;2.45;;;13.00;99.90;;;;;;5043582;28;20045;-60
2023/06/05 06:12:45;;;;;;;5.88;2.47;;;13.00;99.90;;;;;;5042775;28;20045;-60
2023/06/05 06:15:12;;;;;;;11.63;2.70;;;13.00;99.90;;;;;;5032883;28;20049;-59
2023/06/05 06:17:39;;;;;;;6.82;2.83;;;12.90;99.90;;;;;;5013575;28;20038;-60
2023/06/05 06:20:06;;;;;;;5.28;2.53;;;12.80;99.90;;;;;;5038747;28;20132;-59
2023/06/05 06:22:33;;;;;;;6.85;2.60;;;12.90;99.90;;;;;;5044167;28;20053;-60
2023/06/05 06:25:01;;;;;;;3.55;2.30;;;12.90;99.90;;;;;;5047704;28;20184;-59
2023/06/05 06:27:28;;;;;;;7.95;2.85;;;13.00;99.90;;;;;;5048598;28;20051;-60
2023/06/05 06:30:01;;;;;;;11.45;2.42;;;13.00;99.90;;;;;;5044804;28;20073;-60
2023/06/05 06:32:28;;;;;;;6.05;2.38;;;13.00;99.90;;;;;;5048744;28;20118;-60
2023/06/05 06:34:56;;;;;;;6.93;2.80;;;13.00;99.90;;;;;;5036499;28;20054;-60
2023/06/05 06:37:23;;;;;;;11.02;3.50;;;13.00;99.90;;;;;;5030984;28;20049;-59
2023/06/05 06:39:50;;;;;;;7.30;3.85;;;13.10;99.90;;;;;;5038566;28;20052;-59
2023/06/05 06:42:17;;;;;;;8.10;3.20;;;13.10;99.90;;;;;;5049750;28;20127;-59
2023/06/05 06:44:43;;;;;;;4.90;2.75;;;13.10;99.90;;;;;;5037156;28;20519;-59
2023/06/05 06:47:11;;;;;;;6.90;2.70;;;13.00;99.90;;;;;;5036903;28;20053;-60
2023/06/05 06:49:39;;;;;;;9.15;5.05;;;13.00;99.90;;;;;;5033987;28;20059;-59
2023/06/05 06:52:06;;;;;;;8.82;3.40;;;13.00;99.90;;;;;;5029779;28;20069;-60
2023/06/05 06:54:33;;;;;;;9.63;2.90;;;13.00;99.90;;;;;;5033313;28;20053;-59
2023/06/05 06:57:00;;;;;;;8.20;2.80;;;13.00;99.90;;;;;;4680934;28;10000333;-59
2023/06/05 06:59:27;;;;;;;15.85;4.00;;;13.10;99.90;;;;;;5039481;28;20053;-60
2023/06/05 07:02:11;;;;;;;12.88;3.85;;;13.00;99.90;;;;;;5042954;28;20059;-60
2023/06/05 07:04:38;;;;;;;8.73;3.03;;;13.00;99.90;;;;;;5043478;28;20057;-59
2023/06/05 07:07:06;;;;;;;10.63;3.13;;;13.10;99.90;;;;;;5031783;28;20218;-60
2023/06/05 07:09:33;;;;;;;5.28;2.35;;;13.10;99.90;;;;;;5031363;28;20060;-60
2023/06/05 07:12:04;;;;;;;5.32;2.80;;;13.20;99.90;;;;;;5026193;28;20083;-60
2023/06/05 07:14:34;;;;;;;6.47;2.58;;;13.20;99.90;;;;;;5031569;28;20480;-60
2023/06/05 07:17:02;;;;;;;8.05;3.03;;;13.20;99.90;;;;;;5040049;28;20072;-59
2023/06/05 07:19:30;;;;;;;4.95;2.50;;;13.30;99.90;;;;;;5043187;28;20053;-60
2023/06/05 07:21:57;;;;;;;6.30;3.03;;;13.30;99.90;;;;;;5044965;28;20051;-59
2023/06/05 07:24:25;;;;;;;5.53;3.10;;;13.20;99.90;;;;;;5018632;28;20044;-60
2023/06/05 07:26:53;;;;;;;4.45;2.35;;;13.20;99.90;;;;;;5038449;28;20071;-60
2023/06/05 07:29:20;;;;;;;6.63;2.58;;;13.20;99.90;;;;;;5037198;28;20045;-60
2023/06/05 07:31:48;;;;;;;12.88;2.90;;;13.20;99.90;;;;;;5030359;28;20156;-60
2023/06/05 07:34:15;;;;;;;4.57;2.45;;;13.30;99.90;;;;;;5036781;28;20072;-59
2023/06/05 07:36:43;;;;;;;7.10;3.28;;;13.40;99.90;;;;;;5033892;28;20571;-60
2023/06/05 07:39:11;;;;;;;7.28;2.92;;;13.50;99.90;;;;;;5013542;28;20061;-60
2023/06/05 07:41:39;;;;;;;3.85;2.92;;;13.50;99.90;;;;;;5040870;28;20044;-60
2023/06/05 07:44:10;;;;;;;5.53;2.90;;;13.60;99.90;;;;;;5046973;28;20049;-60
2023/06/05 07:46:40;;;;;;;4.10;2.90;;;13.60;99.90;;;;;;5042146;28;20063;-61
2023/06/05 07:49:08;;;;;;;6.45;3.40;;;13.60;99.90;;;;;;5027323;28;20114;-60
2023/06/05 07:51:37;;;;;;;9.13;3.97;;;13.60;99.90;;;;;;5042690;28;20048;-60
2023/06/05 07:54:09;;;;;;;5.90;2.70;;;13.60;99.90;;;;;;5010097;28;20096;-60
2023/06/05 07:56:36;;;;;;;9.13;3.00;;;13.60;99.90;;;;;;5012768;28;20061;-60
2023/06/05 07:59:03;;;;;;;8.07;3.03;;;13.60;99.90;;;;;;5043918;28;20045;-60
2023/06/05 08:01:31;;;;;;;4.82;2.80;;;13.60;99.90;;;;;;5030679;28;20081;-60
2023/06/05 08:03:57;;;;;;;10.40;2.80;;;13.70;99.90;;;;;;5042094;28;20053;-59
2023/06/05 08:06:25;;;;;;;6.50;3.00;;;13.60;99.90;;;;;;5042222;28;20156;-60
2023/06/05 08:08:51;;;;;;;9.05;3.10;;;13.60;99.90;;;;;;5039872;28;20045;-61
2023/06/05 08:11:18;;;;;;;7.22;3.22;;;13.70;99.90;;;;;;5041792;28;20045;-60
2023/06/05 08:13:45;;;;;;;12.25;3.97;;;13.70;99.90;;;;;;5035197;28;20132;-60
2023/06/05 08:16:14;;;;;;;5.68;2.67;;;13.70;99.90;;;;;;5039881;28;20049;-59
2023/06/05 08:18:53;;;;;;;13.45;3.78;;;13.80;99.90;;;;;;5034278;28;20515;-59
2023/06/05 08:21:20;;;;;;;8.68;3.00;;;13.70;99.90;;;;;;5043040;28;20046;-58
2023/06/05 08:23:47;;;;;;;7.80;3.78;;;13.80;99.90;;;;;;5037666;28;20050;-59
2023/06/05 08:26:14;;;;;;;4.10;3.10;;;13.80;99.90;;;;;;5042108;28;20053;-60
2023/06/05 08:28:41;;;;;;;11.48;2.83;;;13.80;99.90;;;;;;5037513;28;20160;-59
2023/06/05 08:31:09;;;;;;;14.80;3.50;;;13.90;99.90;;;;;;5026030;28;20059;-59
2023/06/05 08:33:37;;;;;;;9.95;3.92;;;13.90;99.90;;;;;;5016323;28;20124;-59
2023/06/05 08:36:04;;;;;;;7.15;3.03;;;14.00;99.90;;;;;;5046280;28;20049;-57
2023/06/05 08:38:32;;;;;;;5.82;2.72;;;14.00;99.90;;;;;;5031658;28;20091;-60
2023/06/05 08:41:00;;;;;;;16.40;3.55;;;14.10;99.90;;;;;;5043161;28;20045;-61
2023/06/05 08:43:28;;;;;;;6.03;3.33;;;14.00;99.90;;;;;;5043304;28;20056;-59
2023/06/05 08:45:57;;;;;;;5.97;3.15;;;14.00;99.90;;;;;;5040167;28;20128;-59
2023/06/05 08:48:25;;;;;;;6.78;3.20;;;14.00;99.90;;;;;;5018963;28;20053;-60
2023/06/05 08:50:53;;;;;;;10.18;3.60;;;14.00;99.90;;;;;;5045780;28;20103;-59
2023/06/05 08:53:20;;;;;;;6.05;3.10;;;14.10;99.90;;;;;;5038254;28;20045;-59
2023/06/05 08:55:49;;;;;;;7.07;3.78;;;14.10;99.90;;;;;;5024470;28;20352;-60
2023/06/05 08:58:16;;;;;;;5.47;3.83;;;14.20;99.90;;;;;;5043640;28;20464;-60
2023/06/05 09:00:43;;;;;;;5.72;3.40;;;14.20;99.90;;;;;;5045491;28;20410;-59
2023/06/05 09:03:13;;;;;;;13.00;4.03;;;14.20;99.90;;;;;;5040995;28;20049;-59
2023/06/05 09:05:39;;;;;;;12.73;4.03;;;14.20;99.90;;;;;;5032913;28;20049;-61
2023/06/05 09:08:06;;;;;;;9.52;3.47;;;14.20;99.90;;;;;;5029469;28;20057;-59
2023/06/05 09:10:34;;;;;;;4.53;3.13;;;14.30;99.90;;;;;;5017391;28;20211;-60
2023/06/05 09:13:03;;;;;;;10.25;4.20;;;14.30;99.90;;;;;;5042788;28;20581;-60
2023/06/05 09:15:31;;;;;;;9.90;3.53;;;14.30;99.90;;;;;;5034175;28;20049;-60
2023/06/05 09:18:08;;;;;;;14.88;3.75;;;14.40;99.90;;;;;;5044604;28;20495;-60
2023/06/05 09:20:37;;;;;;;6.60;3.55;;;14.40;99.90;;;;;;5016206;28;20060;-59
2023/06/05 09:23:21;;;;;;;4.57;3.22;;;14.40;99.90;;;;;;5044099;28;20550;-59
2023/06/05 09:25:52;;;;;;;5.47;3.80;;;14.50;99.90;;;;;;5036375;28;20045;-59
2023/06/05 09:28:19;;;;;;;5.97;3.50;;;14.60;99.90;;;;;;5026853;28;20495;-59
2023/06/05 09:30:57;;;;;;;8.88;2.97;;;14.60;99.90;;;;;;5034127;28;20470;-60
2023/06/05 09:33:24;;;;;;;8.55;3.33;;;14.70;99.90;;;;;;5044241;28;20056;-59
2023/06/05 09:36:04;;;;;;;9.88;3.00;;;14.70;99.90;;;;;;5039000;28;20118;-59
2023/06/05 09:38:32;;;;;;;5.93;3.35;;;14.80;99.90;;;;;;5043352;28;20111;-59
2023/06/05 09:41:05;;;;;;;8.25;3.75;;;14.80;99.90;;;;;;5036523;28;20041;-60
2023/06/05 09:43:32;;;;;;;7.38;2.97;;;14.90;99.90;;;;;;5025469;28;20067;-60
2023/06/05 09:46:09;;;;;;;11.40;4.57;;;14.80;99.90;;;;;;5031112;28;20037;-60
2023/06/05 09:48:37;;;;;;;8.23;3.70;;;14.90;99.90;;;;;;5007820;28;20061;-60
2023/06/05 09:51:12;;;;;;;10.52;3.10;;;15.00;99.90;;;;;;5032567;28;20045;-58
2023/06/05 09:53:44;;;;;;;7.65;3.08;;;15.10;99.90;;;;;;5045374;28;20048;-59
2023/06/05 09:56:18;;;;;;;8.73;3.20;;;15.20;99.90;;;;;;5038328;28;20075;-59
2023/06/05 09:58:45;;;;;;;;;;;15.40;99.90;;;;;;5029673;28;20049;-58
2023/06/05 10:01:17;;;;;;;3.65;2.55;;;15.50;99.90;;;;;;5043588;28;20259;-59
2023/06/05 10:03:47;;;;;;;5.15;2.50;;;15.50;99.90;;;;;;5011497;28;20445;-60
2023/06/05 10:06:14;;;;;;;7.15;2.47;;;15.70;99.90;;;;;;5015947;28;20041;-61
2023/06/05 10:08:48;;;;;;;12.25;3.38;;;15.70;99.90;;;;;;5049218;28;20152;-60
2023/06/05 10:11:16;;;;;;;5.68;2.92;;;15.90;99.90;;;;;;5026743;28;20045;-60
2023/06/05 10:13:43;;;;;;;5.85;2.65;;;16.00;99.90;;;;;;5012232;28;20408;-58
2023/06/05 10:16:10;;;;;;;4.53;2.75;;;15.90;99.90;;;;;;5032934;28;20056;-57
2023/06/05 10:18:51;;;;;;;6.93;2.60;;;15.90;99.90;;;;;;5047941;28;20052;-60
2023/06/05 10:21:18;;;;;;;8.13;3.53;;;15.90;99.90;;;;;;5043522;28;20041;-59
2023/06/05 10:23:58;;;;;;;6.45;2.42;;;16.00;99.90;;;;;;5046877;28;20041;-58
2023/06/05 10:26:54;;;;;;;6.32;2.45;;;16.10;99.90;;;;;;5038715;28;20053;-59
2023/06/05 10:29:45;;;;;;;6.35;2.58;;;16.10;99.90;;;;;;5045623;28;20045;-59
2023/06/05 10:32:19;;;;;;;4.38;2.50;;;16.10;99.90;;;;;;5035735;28;20068;-60
2023/06/05 10:34:58;;;;;;;9.23;3.35;;;16.20;99.90;;;;;;5048573;28;20049;-60
2023/06/05 10:38:06;;;;;;;5.65;3.58;;;16.20;99.90;;;;;;5024551;28;20057;-61
2023/06/05 10:40:33;;;;;;;6.38;3.28;;;16.30;99.90;;;;;;5036103;28;20399;-60
2023/06/05 10:43:25;;;;;;;5.95;2.75;;;16.60;99.90;;;;;;5021496;28;20045;-60
2023/06/05 10:45:53;;;;;;;4.38;2.30;;;16.70;99.90;;;;;;5029235;28;20099;-60
2023/06/05 10:49:07;;;;;;;4.28;2.75;;;16.70;99.90;;;;;;5021616;28;20065;-59
2023/06/05 10:51:46;;;;;;;12.05;3.28;;;16.60;99.90;;;;;;5043404;28;20038;-59
2023/06/05 10:54:16;;;;;;;4.53;2.55;;;16.70;99.90;;;;;;5046585;28;20044;-60
2023/06/05 10:56:56;;;;;;;3.85;2.53;;;16.80;99.90;;;;;;5042932;28;20443;-60
2023/06/05 10:59:27;;;;;;;6.90;2.50;;;17.00;99.90;;;;;;5040462;28;20067;-58
2023/06/05 11:02:19;;;;;;;5.18;2.72;;;17.20;99.90;;;;;;5042712;28;20088;-57
2023/06/05 11:04:48;;;;;;;4.90;2.08;;;17.20;99.90;;;;;;5026124;28;20404;-58
2023/06/05 11:07:17;;;;;;;5.75;2.75;;;17.20;99.90;;;;;;5032107;28;20049;-59
2023/06/05 11:10:15;;;;;;;3.47;2.78;;;17.30;99.90;;;;;;5037907;28;20491;-59
2023/06/05 11:12:42;;;;;;;2.35;2.08;;;17.20;99.90;;;;;;5042784;28;20044;-59
2023/06/05 11:15:09;;;;;;;4.78;2.78;;;17.10;99.90;;;;;;5032578;28;20107;-60
2023/06/05 11:17:41;;;;;;;5.45;2.20;;;17.20;99.90;;;;;;5036198;28;20084;-60
2023/06/05 11:20:23;;;;;;;9.60;3.25;;;17.20;99.90;;;;;;5039305;28;20566;-60
2023/06/05 11:22:53;;;;;;;5.57;2.90;;;17.30;99.90;;;;;;5043250;28;20404;-61
2023/06/05 11:25:21;;;;;;;5.25;3.03;;;17.20;99.90;;;;;;5034697;28;20497;-59
2023/06/05 11:27:49;;;;;;;6.10;3.30;;;17.30;99.90;;;;;;5031277;28;20504;-59
2023/06/05 11:30:20;;;;;;;6.05;3.58;;;17.20;99.90;;;;;;5038223;28;20049;-60
2023/06/05 11:33:16;;;;;;;5.00;2.33;;;17.20;99.90;;;;;;5042767;28;20096;-60
2023/06/05 11:35:44;;;;;;;5.88;2.42;;;17.40;99.90;;;;;;5039498;28;20166;-60
2023/06/05 11:38:12;;;;;;;5.65;3.55;;;17.40;99.90;;;;;;5043383;28;20482;-61
2023/06/05 11:40:39;;;;;;;6.65;2.88;;;17.50;99.90;;;;;;5021133;28;20179;-60
2023/06/05 11:43:08;;;;;;;3.83;2.70;;;17.40;99.90;;;;;;5046294;28;20053;-61
2023/06/05 11:45:39;;;;;;;7.60;2.70;;;17.40;99.90;;;;;;5036196;28;20095;-60
2023/06/05 11:48:08;;;;;;;4.50;2.17;;;17.50;99.90;;;;;;5044587;28;20052;-60
2023/06/05 11:50:36;;;;;;;6.15;2.53;;;17.60;99.90;;;;;;5038164;28;20084;-60
2023/06/05 11:53:08;;;;;;;8.23;2.72;;;17.70;99.90;;;;;;5027542;28;20057;-60
2023/06/05 11:58:24;;;;;;;6.00;2.95;;;17.90;99.90;;;;;;5045416;28;20107;-60
2023/06/05 12:00:52;;;;;;;3.03;2.30;;;18.00;99.90;;;;;;5036084;28;20059;-60
2023/06/05 12:03:20;;;;;;;8.95;3.72;;;18.00;99.90;;;;;;5046579;28;20315;-60
2023/06/05 12:05:48;;;;;;;11.23;4.25;;;18.10;99.90;;;;;;5038040;28;20053;-58
2023/06/05 12:08:22;;;;;;;6.32;2.58;;;17.90;99.90;;;;;;5026865;28;20388;-60
2023/06/05 12:10:49;;;;;;;4.47;2.63;;;17.90;99.90;;;;;;5035065;28;20150;-60
2023/06/05 12:13:16;;;;;;;10.23;2.88;;;18.00;99.90;;;;;;5047181;28;20048;-62
2023/06/05 12:15:43;;;;;;;3.90;2.63;;;18.20;99.90;;;;;;5027156;28;20059;-61
2023/06/05 12:18:10;;;;;;;5.38;3.08;;;18.20;99.90;;;;;;5027589;28;20041;-60
2023/06/05 12:20:40;;;;;;;10.93;2.85;;;18.30;99.90;;;;;;5044304;28;20057;-60
2023/06/05 12:23:07;;;;;;;2.58;2.10;;;18.30;99.90;;;;;;5028688;28;20119;-61
2023/06/05 12:25:34;;;;;;;7.32;2.88;;;18.40;99.90;;;;;;5040264;28;20052;-61
2023/06/05 12:28:01;;;;;;;4.50;2.45;;;18.70;99.90;;;;;;5025838;28;20140;-60
2023/06/05 12:30:40;;;;;;;11.48;2.90;;;18.90;99.90;;;;;;5031914;28;20099;-60
2023/06/05 12:33:08;;;;;;;4.30;3.00;;;19.00;99.80;;;;;;5028776;28;20049;-60
2023/06/05 12:35:35;;;;;;;5.55;2.50;;;19.00;99.90;;;;;;5034047;28;20148;-60
2023/06/05 12:38:03;;;;;;;11.05;2.88;;;19.00;99.90;;;;;;5036649;28;20060;-60
2023/06/05 12:40:30;;;;;;;6.68;2.40;;;18.90;99.90;;;;;;5030086;28;20049;-60
2023/06/05 12:43:03;;;;;;;;;;;18.80;99.90;;;;;;5022328;28;20648;-60
2023/06/05 12:45:33;;;;;;;4.60;2.88;;;18.90;99.90;;;;;;5042274;28;19948;-60
2023/06/05 12:48:00;;;;;;;8.27;2.40;;;18.90;99.90;;;;;;5038783;28;20045;-60
2023/06/05 12:50:28;;;;;;;5.80;2.50;;;19.00;99.90;;;;;;5043511;28;20076;-60
2023/06/05 12:52:55;;;;;;;8.35;3.00;;;19.10;99.90;;;;;;5035840;28;20128;-60
2023/06/05 12:55:22;;;;;;;3.95;2.22;;;19.30;99.90;;;;;;5045593;28;20059;-60
2023/06/05 12:57:49;;;;;;;4.97;2.60;;;19.50;99.90;;;;;;5045529;28;20045;-61
2023/06/05 13:00:18;;;;;;;10.30;2.75;;;19.60;99.90;;;;;;5041913;28;20041;-60